createdAt,value
2018-08-22T00:01:52.279Z,6.07
2018-08-22T00:04:20.819Z,6.63
2018-08-22T00:06:49.314Z,7.10
2018-08-22T00:09:17.852Z,6.00
2018-08-22T00:11:46.302Z,10.47
2018-08-22T00:14:14.730Z,6.33
2018-08-22T00:16:43.235Z,8.33
2018-08-22T00:19:11.659Z,6.37
2018-08-22T00:21:40.141Z,9.63
2018-08-22T00:24:08.636Z,9.53
2018-08-22T00:26:37.163Z,5.87
2018-08-22T00:29:05.895Z,8.30
2018-08-22T00:31:34.323Z,8.57
2018-08-22T00:34:02.794Z,6.97
2018-08-22T00:36:31.215Z,11.73
2018-08-22T00:38:59.650Z,12.83
2018-08-22T00:41:28.212Z,6.60
2018-08-22T00:43:56.764Z,7.07
2018-08-22T00:46:25.279Z,7.20
2018-08-22T00:48:53.703Z,5.37
2018-08-22T00:51:22.315Z,7.07
2018-08-22T00:53:50.850Z,13.60
2018-08-22T00:56:19.298Z,8.53
2018-08-22T00:58:47.779Z,6.27
2018-08-22T01:01:16.216Z,6.53
2018-08-22T01:03:44.723Z,7.07
2018-08-22T01:06:13.188Z,6.30
2018-08-22T01:08:41.635Z,8.03
2018-08-22T01:11:10.172Z,6.70
2018-08-22T01:13:38.579Z,7.10
2018-08-22T01:16:07.217Z,6.67
2018-08-22T01:18:35.634Z,9.00
2018-08-22T01:21:04.083Z,7.40
2018-08-22T01:23:32.492Z,5.67
2018-08-22T01:26:00.947Z,7.27
2018-08-22T01:28:29.386Z,6.40
2018-08-22T01:30:57.851Z,7.03
2018-08-22T01:33:26.286Z,6.13
2018-08-22T01:35:54.723Z,7.67
2018-08-22T01:38:23.219Z,8.33
2018-08-22T01:40:51.655Z,8.07
2018-08-22T01:43:20.475Z,7.10
2018-08-22T01:45:48.898Z,6.90
2018-08-22T01:48:17.398Z,8.20
2018-08-22T01:50:46.083Z,6.93
2018-08-22T01:53:14.532Z,7.20
2018-08-22T01:55:42.998Z,6.87
2018-08-22T01:58:11.459Z,8.83
2018-08-22T02:00:39.884Z,8.40
2018-08-22T02:03:08.367Z,11.37
2018-08-22T02:05:36.855Z,13.63
2018-08-22T02:08:05.335Z,7.80
2018-08-22T02:10:33.810Z,7.47
2018-08-22T02:13:02.228Z,12.70
2018-08-22T02:15:30.642Z,7.43
2018-08-22T02:17:59.089Z,8.50
2018-08-22T02:20:27.514Z,8.43
2018-08-22T02:22:56.207Z,7.27
2018-08-22T02:25:24.632Z,11.50
2018-08-22T02:27:53.075Z,7.43
2018-08-22T02:30:21.511Z,7.30
2018-08-22T02:32:49.946Z,6.27
2018-08-22T02:35:18.383Z,8.73
2018-08-22T02:37:46.836Z,10.63
2018-08-22T02:40:15.407Z,9.23
2018-08-22T02:42:43.898Z,8.23
2018-08-22T02:45:12.308Z,8.97
2018-08-22T02:47:40.856Z,8.00
2018-08-22T02:50:09.291Z,7.57
2018-08-22T02:52:37.743Z,7.50
2018-08-22T02:55:06.193Z,6.50
2018-08-22T02:57:34.672Z,11.60
2018-08-22T03:00:03.090Z,11.80
2018-08-22T03:02:31.544Z,9.20
2018-08-22T03:05:00.016Z,16.10
2018-08-22T03:07:28.454Z,10.07
2018-08-22T03:09:57.394Z,9.00
2018-08-22T03:12:32.360Z,9.37
2018-08-22T03:15:00.803Z,18.97
2018-08-22T03:17:29.226Z,12.00
2018-08-22T03:19:57.659Z,12.63
2018-08-22T03:22:26.228Z,11.77
2018-08-22T03:24:54.783Z,8.20
2018-08-22T03:27:23.276Z,11.20
2018-08-22T03:29:51.769Z,12.13
2018-08-22T03:32:20.204Z,14.30
2018-08-22T03:34:48.632Z,13.00
2018-08-22T03:37:17.442Z,12.60
2018-08-22T03:39:45.856Z,10.83
2018-08-22T03:42:14.320Z,11.60
2018-08-22T03:44:42.750Z,12.90
2018-08-22T03:47:11.193Z,14.57
2018-08-22T03:49:39.655Z,21.70
2018-08-22T03:52:08.115Z,12.37
2018-08-22T03:54:36.539Z,12.00
2018-08-22T03:57:05.199Z,20.23
2018-08-22T03:59:33.614Z,24.33
2018-08-22T04:02:02.298Z,11.87
2018-08-22T04:04:30.739Z,16.10
2018-08-22T04:06:59.215Z,23.60
2018-08-22T04:09:27.643Z,12.53
2018-08-22T04:11:56.080Z,18.37
2018-08-22T04:14:24.487Z,11.23
2018-08-22T04:16:53.040Z,12.60
2018-08-22T04:19:21.458Z,11.47
2018-08-22T04:21:50.016Z,18.70
2018-08-22T04:24:18.491Z,11.97
2018-08-22T04:26:47.009Z,15.43
2018-08-22T04:29:15.436Z,11.97
2018-08-22T04:31:43.876Z,17.93
2018-08-22T04:34:12.316Z,10.17
2018-08-22T04:36:40.828Z,12.50
2018-08-22T04:39:10.186Z,7.97
2018-08-22T04:41:38.709Z,10.17
2018-08-22T04:44:07.147Z,13.53
2018-08-22T04:46:35.567Z,14.27
2018-08-22T04:49:04.113Z,8.70
2018-08-22T04:51:32.534Z,11.00
2018-08-22T04:54:01.011Z,11.00
2018-08-22T04:56:29.536Z,10.37
2018-08-22T04:58:57.963Z,9.10
2018-08-22T05:01:26.398Z,11.93
2018-08-22T05:03:54.873Z,12.03
2018-08-22T05:06:23.337Z,14.97
2018-08-22T05:08:51.778Z,9.80
2018-08-22T05:11:20.320Z,11.50
2018-08-22T05:13:48.787Z,12.43
2018-08-22T05:16:17.222Z,8.50
2018-08-22T05:18:45.654Z,10.30
2018-08-22T05:21:14.094Z,11.97
2018-08-22T05:23:42.501Z,8.90
2018-08-22T05:26:10.959Z,10.23
2018-08-22T05:28:39.411Z,9.97
2018-08-22T05:31:07.945Z,11.37
2018-08-22T05:33:36.460Z,11.43
2018-08-22T05:36:04.945Z,9.13
2018-08-22T05:38:33.347Z,12.23
2018-08-22T05:41:01.915Z,9.70
2018-08-22T05:43:30.359Z,12.37
2018-08-22T05:45:58.795Z,14.47
2018-08-22T05:48:27.228Z,9.30
2018-08-22T05:50:55.659Z,13.97
2018-08-22T05:53:24.084Z,12.73
2018-08-22T05:55:52.516Z,14.40
2018-08-22T05:58:20.940Z,18.70
2018-08-22T06:00:49.549Z,15.20
2018-08-22T06:03:18.024Z,16.77
2018-08-22T06:05:46.641Z,11.47
2018-08-22T06:08:15.190Z,14.80
2018-08-22T06:10:43.603Z,13.40
2018-08-22T06:13:12.104Z,14.50
2018-08-22T06:15:40.608Z,14.23
2018-08-22T06:18:09.018Z,15.90
2018-08-22T06:20:37.441Z,15.50
2018-08-22T06:23:05.908Z,12.60
2018-08-22T06:25:34.366Z,12.97
2018-08-22T06:28:02.771Z,12.60
2018-08-22T06:30:31.236Z,13.53
2018-08-22T06:32:59.696Z,21.60
2018-08-22T06:35:28.115Z,14.30
2018-08-22T06:37:56.708Z,16.83
2018-08-22T06:40:25.227Z,16.30
2018-08-22T06:42:53.807Z,25.00
2018-08-22T06:45:22.228Z,14.70
2018-08-22T06:47:50.706Z,22.97
2018-08-22T06:50:19.221Z,16.20
2018-08-22T06:52:47.603Z,21.97
2018-08-22T06:55:16.104Z,16.67
2018-08-22T06:57:44.533Z,17.60
2018-08-22T07:00:12.983Z,18.80
2018-08-22T07:02:41.399Z,22.90
2018-08-22T07:05:09.924Z,19.13
2018-08-22T07:07:38.339Z,17.60
2018-08-22T07:10:06.792Z,26.43
2018-08-22T07:12:35.220Z,26.13
2018-08-22T07:15:03.680Z,16.77
2018-08-22T07:17:32.113Z,15.77
2018-08-22T07:20:00.550Z,22.93
2018-08-22T07:22:28.999Z,24.17
2018-08-22T07:24:57.450Z,16.03
2018-08-22T07:27:25.880Z,17.63
2018-08-22T07:29:54.326Z,18.63
2018-08-22T07:32:22.750Z,14.50
2018-08-22T07:34:51.184Z,20.90
2018-08-22T07:37:19.887Z,16.53
2018-08-22T07:39:48.337Z,10.00
2018-08-22T07:42:16.746Z,8.70
2018-08-22T07:44:45.223Z,15.03
2018-08-22T07:47:13.710Z,10.53
2018-08-22T07:49:42.192Z,11.53
2018-08-22T07:52:10.638Z,9.47
2018-08-22T07:54:46.235Z,8.90
2018-08-22T07:57:17.076Z,11.50
2018-08-22T07:59:45.483Z,13.30
2018-08-22T08:02:14.020Z,9.77
2018-08-22T08:04:42.475Z,21.93
2018-08-22T08:07:11.027Z,11.23
2018-08-22T08:09:39.444Z,10.07
2018-08-22T08:12:07.891Z,16.73
2018-08-22T08:14:36.307Z,9.27
2018-08-22T08:17:04.886Z,15.77
2018-08-22T08:19:33.288Z,15.83
2018-08-22T08:22:01.804Z,13.70
2018-08-22T08:24:30.416Z,8.70
2018-08-22T08:26:58.859Z,8.20
2018-08-22T08:29:27.275Z,9.10
2018-08-22T08:31:55.712Z,8.63
2018-08-22T08:34:24.195Z,8.30
2018-08-22T08:36:52.734Z,8.70
2018-08-22T08:39:21.297Z,10.30
2018-08-22T08:41:49.810Z,8.83
2018-08-22T08:44:18.176Z,9.00
2018-08-22T08:46:46.708Z,8.80
2018-08-22T08:49:15.199Z,8.73
2018-08-22T08:51:55.021Z,7.93
2018-08-22T08:54:23.467Z,13.60
2018-08-22T08:56:52.132Z,8.73
2018-08-22T08:59:20.834Z,8.40
2018-08-22T09:01:49.306Z,9.60
2018-08-22T09:04:17.751Z,9.57
2018-08-22T09:06:46.475Z,10.80
2018-08-22T09:09:14.904Z,8.33
2018-08-22T09:11:46.431Z,9.43
2018-08-22T09:14:14.897Z,9.60
2018-08-22T09:16:43.418Z,8.53
2018-08-22T09:19:11.919Z,10.33
2018-08-22T09:21:40.463Z,9.87
2018-08-22T09:24:09.009Z,10.57
2018-08-22T09:26:37.364Z,7.37
2018-08-22T09:29:05.847Z,7.70
2018-08-22T09:31:34.279Z,6.93
2018-08-22T09:34:02.731Z,8.17
2018-08-22T09:36:31.230Z,7.00
2018-08-22T09:39:00.586Z,6.40
2018-08-22T09:41:29.111Z,8.00
2018-08-22T09:43:57.752Z,7.33
2018-08-22T09:46:26.297Z,7.30
2018-08-22T09:48:55.585Z,9.23
2018-08-22T09:51:24.089Z,10.17
2018-08-22T09:53:52.795Z,9.83
2018-08-22T09:56:21.243Z,11.33
2018-08-22T09:58:49.665Z,8.60
2018-08-22T10:01:28.155Z,9.53
2018-08-22T10:03:58.179Z,7.10
2018-08-22T10:06:36.269Z,6.70
2018-08-22T10:09:11.205Z,10.40
2018-08-22T10:11:39.676Z,7.23
2018-08-22T10:14:08.115Z,7.03
2018-08-22T10:16:36.643Z,10.53
2018-08-22T10:19:05.377Z,7.10
2018-08-22T10:21:33.770Z,7.90
2018-08-22T10:24:02.237Z,7.50
2018-08-22T10:26:30.741Z,7.33
2018-08-22T10:28:59.356Z,8.40
2018-08-22T10:31:27.831Z,7.03
2018-08-22T10:33:56.730Z,11.20
2018-08-22T10:36:25.408Z,7.27
2018-08-22T10:38:53.923Z,7.40
2018-08-22T10:41:22.435Z,8.33
2018-08-22T10:43:50.870Z,8.93
2018-08-22T10:46:19.292Z,7.60
2018-08-22T10:48:47.744Z,7.40
2018-08-22T10:51:16.297Z,9.20
2018-08-22T10:53:44.783Z,9.93
2018-08-22T10:56:13.315Z,8.83
2018-08-22T10:58:41.802Z,8.30
2018-08-22T11:01:10.222Z,7.90
2018-08-22T11:03:38.752Z,7.10
2018-08-22T11:06:07.231Z,7.73
2018-08-22T11:08:35.680Z,8.13
2018-08-22T11:11:04.155Z,9.27
2018-08-22T11:13:32.964Z,9.30
2018-08-22T11:16:01.502Z,8.10
2018-08-22T11:18:30.000Z,7.67
2018-08-22T11:21:09.710Z,7.40
2018-08-22T11:23:49.463Z,8.00
2018-08-22T11:26:29.234Z,7.93
2018-08-22T11:29:08.950Z,8.93
2018-08-22T11:31:48.738Z,6.97
2018-08-22T11:34:28.509Z,7.53
2018-08-22T11:37:01.883Z,10.37
2018-08-22T11:39:30.381Z,8.10
2018-08-22T11:41:58.850Z,7.73
2018-08-22T11:44:29.399Z,7.30
2018-08-22T11:46:57.848Z,7.80
2018-08-22T11:49:26.507Z,7.30
2018-08-22T11:51:55.210Z,8.27
2018-08-22T11:54:23.670Z,9.23
2018-08-22T11:56:52.117Z,7.63
2018-08-22T11:59:21.549Z,7.53
2018-08-22T12:01:51.191Z,8.63
2018-08-22T12:04:20.272Z,8.43
2018-08-22T12:06:48.752Z,7.90
2018-08-22T12:09:17.195Z,9.80
2018-08-22T12:11:45.618Z,7.50
2018-08-22T12:14:14.055Z,7.73
2018-08-22T12:16:42.783Z,7.63
2018-08-22T12:19:14.927Z,8.30
2018-08-22T12:21:43.495Z,7.53
2018-08-22T12:24:12.046Z,8.10
2018-08-22T12:26:40.460Z,9.40
2018-08-22T12:29:09.003Z,7.90
2018-08-22T12:31:37.439Z,7.73
2018-08-22T12:34:05.879Z,7.73
2018-08-22T12:36:34.302Z,7.87
2018-08-22T12:39:02.811Z,8.13
2018-08-22T12:41:31.285Z,8.47
2018-08-22T12:43:59.823Z,7.60
2018-08-22T12:46:28.514Z,7.40
2018-08-22T12:48:56.997Z,7.53
2018-08-22T12:51:25.426Z,9.73
2018-08-22T12:53:53.892Z,7.33
2018-08-22T12:56:22.337Z,6.67
2018-08-22T12:58:50.983Z,7.47
2018-08-22T13:01:19.423Z,8.53
2018-08-22T13:03:47.909Z,6.73
2018-08-22T13:06:16.347Z,7.63
2018-08-22T13:08:44.852Z,7.50
2018-08-22T13:11:13.378Z,7.33
2018-08-22T13:13:41.776Z,7.43
2018-08-22T13:16:10.262Z,8.37
2018-08-22T13:18:38.831Z,7.63
2018-08-22T13:21:07.276Z,8.30
2018-08-22T13:23:35.695Z,8.20
2018-08-22T13:26:04.131Z,7.43
2018-08-22T13:28:32.557Z,8.00
2018-08-22T13:31:01.023Z,8.67
2018-08-22T13:33:29.492Z,7.90
2018-08-22T13:35:58.052Z,7.97
2018-08-22T13:38:26.487Z,9.20
2018-08-22T13:40:54.900Z,7.30
2018-08-22T13:43:23.376Z,7.33
2018-08-22T13:45:51.923Z,7.43
2018-08-22T13:48:20.363Z,7.60
2018-08-22T13:50:48.832Z,8.00
2018-08-22T13:53:17.231Z,8.17
2018-08-22T13:55:45.698Z,7.00
2018-08-22T13:58:14.215Z,7.43
2018-08-22T14:00:42.630Z,7.13
2018-08-22T14:03:11.107Z,7.37
2018-08-22T14:05:39.576Z,9.40
2018-08-22T14:08:08.012Z,7.20
2018-08-22T14:10:36.452Z,7.67
2018-08-22T14:13:04.890Z,8.17
2018-08-22T14:15:33.416Z,8.30
2018-08-22T14:18:01.878Z,13.83
2018-08-22T14:20:30.612Z,7.80
2018-08-22T14:22:59.080Z,7.07
2018-08-22T14:25:27.680Z,7.30
2018-08-22T14:27:56.238Z,7.30
2018-08-22T14:30:24.673Z,9.40
2018-08-22T14:32:53.268Z,8.90
2018-08-22T14:35:21.690Z,7.77
2018-08-22T14:37:50.127Z,9.73
2018-08-22T14:40:18.777Z,6.53
2018-08-22T14:42:47.228Z,7.90
2018-08-22T14:45:15.683Z,7.10
2018-08-22T14:47:44.091Z,7.80
2018-08-22T14:50:12.922Z,7.67
2018-08-22T14:52:41.413Z,6.93
2018-08-22T14:55:09.874Z,7.70
2018-08-22T14:57:38.292Z,7.87
2018-08-22T15:00:07.320Z,6.47
2018-08-22T15:02:35.885Z,7.30
2018-08-22T15:05:04.228Z,7.73
2018-08-22T15:07:32.674Z,7.20
2018-08-22T15:10:01.181Z,8.73
2018-08-22T15:12:29.624Z,8.77
2018-08-22T15:14:58.112Z,7.60
2018-08-22T15:17:26.530Z,7.77
2018-08-22T15:19:55.136Z,7.53
2018-08-22T15:22:23.558Z,7.13
2018-08-22T15:24:52.218Z,8.40
2018-08-22T15:27:20.813Z,7.90
2018-08-22T15:29:49.267Z,7.60
2018-08-22T15:32:17.681Z,6.60
2018-08-22T15:34:52.500Z,14.63
2018-08-22T15:37:21.479Z,9.73
2018-08-22T15:39:49.899Z,7.13
2018-08-22T15:42:18.396Z,4.80
2018-08-22T15:44:46.835Z,3.83
2018-08-22T15:47:15.458Z,7.23
2018-08-22T15:49:45.032Z,4.97
2018-08-22T15:52:13.531Z,5.00
2018-08-22T15:54:41.957Z,5.53
2018-08-22T15:57:10.428Z,3.77
2018-08-22T15:59:38.920Z,7.00
2018-08-22T16:02:07.512Z,6.23
2018-08-22T16:04:51.460Z,12.53
2018-08-22T16:07:20.125Z,6.37
2018-08-22T16:09:48.576Z,8.20
2018-08-22T16:12:17.060Z,7.30
2018-08-22T16:14:45.633Z,7.77
2018-08-22T16:17:14.107Z,7.40
2018-08-22T16:19:42.556Z,7.37
2018-08-22T16:22:11.033Z,10.00
2018-08-22T16:24:41.521Z,9.60
2018-08-22T16:27:10.016Z,7.77
2018-08-22T16:29:38.483Z,9.40
2018-08-22T16:32:07.053Z,9.50
2018-08-22T16:34:35.644Z,8.60
2018-08-22T16:37:04.126Z,8.37
2018-08-22T16:39:40.915Z,7.97
2018-08-22T16:42:10.116Z,12.60
2018-08-22T16:44:38.878Z,14.30
2018-08-22T16:47:07.633Z,9.33
2018-08-22T16:49:36.228Z,7.93
2018-08-22T16:52:04.713Z,8.60
2018-08-22T16:54:33.156Z,11.67
2018-08-22T16:57:01.621Z,6.30
2018-08-22T16:59:30.254Z,7.57
2018-08-22T17:01:58.807Z,11.70
2018-08-22T17:04:27.271Z,13.73
2018-08-22T17:06:57.789Z,9.17
2018-08-22T17:09:27.500Z,7.53
2018-08-22T17:11:56.034Z,6.60
2018-08-22T17:14:24.715Z,7.23
2018-08-22T17:16:53.197Z,6.73
2018-08-22T17:19:21.669Z,8.47
2018-08-22T17:21:50.104Z,8.63
2018-08-22T17:24:18.697Z,8.37
2018-08-22T17:26:47.140Z,8.33
2018-08-22T17:29:15.840Z,7.77
2018-08-22T17:31:50.069Z,7.90
2018-08-22T17:34:18.543Z,6.77
2018-08-22T17:36:57.209Z,7.03
2018-08-22T17:39:30.326Z,7.47
2018-08-22T17:41:58.892Z,6.03
2018-08-22T17:44:27.523Z,6.57
2018-08-22T17:46:55.963Z,7.90
2018-08-22T17:49:24.414Z,7.80
2018-08-22T17:51:57.128Z,7.77
2018-08-22T17:54:25.952Z,8.30
2018-08-22T17:57:06.519Z,11.80
2018-08-22T17:59:34.964Z,9.10
2018-08-22T18:02:03.588Z,7.90
2018-08-22T18:04:43.419Z,8.07
2018-08-22T18:07:11.923Z,8.10
2018-08-22T18:09:40.368Z,7.70
2018-08-22T18:12:08.985Z,12.80
2018-08-22T18:14:37.642Z,7.73
2018-08-22T18:17:06.631Z,7.80
2018-08-22T18:19:37.352Z,8.30
2018-08-22T18:22:05.955Z,10.90
2018-08-22T18:24:41.050Z,9.07
2018-08-22T18:27:10.068Z,9.17
2018-08-22T18:29:41.949Z,14.90
2018-08-22T18:32:11.067Z,12.23
2018-08-22T18:34:55.096Z,11.80
2018-08-22T18:37:24.175Z,11.43
2018-08-22T18:40:03.893Z,19.37
2018-08-22T18:42:32.395Z,10.80
2018-08-22T18:45:00.901Z,10.37
2018-08-22T18:47:30.565Z,11.07
2018-08-22T18:49:59.221Z,8.90
2018-08-22T18:52:27.736Z,9.67
2018-08-22T18:54:56.164Z,11.03
2018-08-22T18:57:24.701Z,11.33
2018-08-22T18:59:53.218Z,9.40
2018-08-22T19:02:21.831Z,10.17
2018-08-22T19:04:50.287Z,12.03
2018-08-22T19:07:18.762Z,20.10
2018-08-22T19:09:47.174Z,14.73
2018-08-22T19:12:15.662Z,8.83
2018-08-22T19:14:46.431Z,12.77
2018-08-22T19:17:16.410Z,10.03
2018-08-22T19:19:47.722Z,9.40
2018-08-22T19:22:18.178Z,10.10
2018-08-22T19:25:03.086Z,10.63
2018-08-22T19:27:33.871Z,10.27
2018-08-22T19:30:05.130Z,9.93
2018-08-22T19:32:33.690Z,11.03
2018-08-22T19:35:02.155Z,15.83
2018-08-22T19:37:30.663Z,10.90
2018-08-22T19:40:08.412Z,13.80
2018-08-22T19:42:38.300Z,11.93
2018-08-22T19:45:08.114Z,11.70
2018-08-22T19:47:38.885Z,9.13
2018-08-22T19:50:08.579Z,9.17
2018-08-22T19:52:37.072Z,11.53
2018-08-22T19:55:06.664Z,10.60
2018-08-22T19:57:37.657Z,11.33
2018-08-22T20:00:10.622Z,9.60
2018-08-22T20:02:39.235Z,10.77
2018-08-22T20:05:09.451Z,13.60
2018-08-22T20:07:38.375Z,12.63
2018-08-22T20:10:07.607Z,10.00
2018-08-22T20:12:43.938Z,9.43
2018-08-22T20:15:12.441Z,11.43
2018-08-22T20:17:40.999Z,10.10
2018-08-22T20:20:10.633Z,11.00
2018-08-22T20:22:42.136Z,14.00
2018-08-22T20:25:11.204Z,10.33
2018-08-22T20:27:40.122Z,11.00
2018-08-22T20:30:19.383Z,10.70
2018-08-22T20:32:58.591Z,12.53
2018-08-22T20:35:28.619Z,11.63
2018-08-22T20:37:58.934Z,13.40
2018-08-22T20:40:27.419Z,12.27
2018-08-22T20:42:56.301Z,11.13
2018-08-22T20:45:39.354Z,12.60
2018-08-22T20:48:13.152Z,10.23
2018-08-22T20:50:43.013Z,12.83
2018-08-22T20:53:13.167Z,10.67
2018-08-22T20:55:41.596Z,9.87
2018-08-22T20:58:44.664Z,9.73
2018-08-22T21:01:13.138Z,10.83
2018-08-22T21:03:41.659Z,10.90
2018-08-22T21:06:10.776Z,12.60
2018-08-22T21:08:39.272Z,11.53
2018-08-22T21:11:07.784Z,11.63
2018-08-22T21:13:36.381Z,12.13
2018-08-22T21:16:04.818Z,11.20
2018-08-22T21:18:33.303Z,11.83
2018-08-22T21:21:03.375Z,10.77
2018-08-22T21:23:31.826Z,9.63
2018-08-22T21:26:00.300Z,10.57
2018-08-22T21:28:33.407Z,11.60
2018-08-22T21:31:02.115Z,10.83
2018-08-22T21:33:31.424Z,11.50
2018-08-22T21:35:59.987Z,10.53
2018-08-22T21:38:28.485Z,14.07
2018-08-22T21:40:57.101Z,9.87
2018-08-22T21:43:25.748Z,10.27
2018-08-22T21:45:54.186Z,10.17
2018-08-22T21:48:24.498Z,10.73
2018-08-22T21:50:52.945Z,10.47
2018-08-22T21:53:21.474Z,9.87
2018-08-22T21:55:51.509Z,9.77
2018-08-22T21:58:19.970Z,9.83
2018-08-22T22:00:48.426Z,12.37
2018-08-22T22:03:33.547Z,12.10
2018-08-22T22:06:02.939Z,10.10
2018-08-22T22:08:31.428Z,11.13
2018-08-22T22:11:05.065Z,11.07
2018-08-22T22:13:33.605Z,11.40
2018-08-22T22:16:03.978Z,10.17
2018-08-22T22:18:33.630Z,11.10
2018-08-22T22:21:07.851Z,10.40
2018-08-22T22:23:42.916Z,11.07
2018-08-22T22:26:11.827Z,10.30
2018-08-22T22:28:40.664Z,10.73
2018-08-22T22:31:12.339Z,10.67
2018-08-22T22:33:57.861Z,11.33
2018-08-22T22:36:26.335Z,10.37
2018-08-22T22:38:54.861Z,10.60
2018-08-22T22:41:25.861Z,10.87
2018-08-22T22:43:54.326Z,13.90
2018-08-22T22:46:22.846Z,10.00
2018-08-22T22:48:51.331Z,12.57
2018-08-22T22:51:19.777Z,10.23
2018-08-22T22:53:48.210Z,9.37
2018-08-22T22:56:16.659Z,9.90
2018-08-22T22:58:45.088Z,10.03
2018-08-22T23:01:13.581Z,11.47
2018-08-22T23:03:42.436Z,10.43
2018-08-22T23:06:10.924Z,9.80
2018-08-22T23:08:39.390Z,11.77
2018-08-22T23:11:07.870Z,10.97
2018-08-22T23:13:36.287Z,10.47
2018-08-22T23:16:04.803Z,10.83
2018-08-22T23:18:33.279Z,10.10
2018-08-22T23:21:01.959Z,10.43
2018-08-22T23:23:33.830Z,9.83
2018-08-22T23:26:09.582Z,10.50
2018-08-22T23:28:38.030Z,13.50
2018-08-22T23:31:06.505Z,11.37
2018-08-22T23:33:34.972Z,11.10
2018-08-22T23:36:03.395Z,11.07
2018-08-22T23:38:33.110Z,11.10
2018-08-22T23:41:02.431Z,10.17
2018-08-22T23:43:39.734Z,10.00
2018-08-22T23:46:09.750Z,11.50
2018-08-22T23:48:38.756Z,14.87
2018-08-22T23:51:09.417Z,10.60
2018-08-22T23:53:43.255Z,10.93
2018-08-22T23:56:17.861Z,9.77
2018-08-22T23:58:47.338Z,12.40
